METAR Data
IDs: Format: Raw Decoded Include TAF

Data at: 1620 UTC 19 Sep 2018

KCPS 191553Z 14005KT 10SM CLR 30/23 A3000 RMK AO2 SLP154 T03000228
KCPS 191453Z 13004KT 10SM CLR 28/23 A2999 RMK AO2 SLP151 T02780228 53012
KCPS 191353Z 17003KT 10SM BKN080 25/22 A2998 RMK AO2 SLP147 T02500217
KCPS 191253Z 00000KT 10SM FEW065 23/22 A2997 RMK AO2 SLP143 T02330217
KCPS 191153Z 17005KT 10SM SCT055 BKN070 23/22 A2996 RMK AO2 SLP139 T02330217 10244 20217 51009
KCPS 191053Z AUTO 17003KT 10SM SCT055 BKN070 23/22 A2995 RMK AO2 SLP136 T02330217
KCPS 190953Z AUTO 00000KT 10SM BKN050 BKN065 23/21 A2994 RMK AO2 SLP134 T02280211
KCPS 190853Z AUTO 00000KT 10SM BKN060 22/21 A2993 RMK AO2 SLP129 T02220211 53003
KCPS 190753Z AUTO 16003KT 10SM CLR 22/21 A2992 RMK AO2 SLP126 T02220211
KCPS 190653Z AUTO 00000KT 10SM CLR 23/21 A2992 RMK AO2 SLP128 T02280211
KCPS 190553Z AUTO 22003KT 10SM CLR 24/21 A2992 RMK AO2 SLP126 T02440211 10300 20244 403440200 51003
KCPS 190453Z AUTO 22003KT 10SM CLR 25/21 A2991 RMK AO2 SLP125 T02500211
KCPS 190353Z AUTO 10003KT 10SM CLR 24/21 A2992 RMK AO2 SLP127 T02440211
KCPS 190253Z 00000KT 10SM CLR 25/21 A2991 RMK AO2 SLP124 T02500211 50007
KCPS 190153Z 00000KT 10SM CLR 26/22 A2993 RMK AO2 SLP129 T02560217
KCPS 190053Z 17004KT 10SM CLR 27/21 A2989 RMK AO2 SLP118 T02670211
KCPS 182353Z 00000KT 10SM CLR 31/21 A2989 RMK AO2 SLP118 T03060206 10344 20306 55003
KCPS 182253Z 23003KT 10SM CLR 33/19 A2988 RMK AO2 SLP115 T03280194
KCPS 182153Z VRB04KT 10SM CLR 34/19 A2988 RMK AO2 SLP113 T03390189
KCPS 182053Z 28004KT 10SM SCT080 33/19 A2990 RMK AO2 SLP121 T03280189 58013
KCPS 181953Z VRB04KT 10SM CLR 34/19 A2991 RMK AO2 SLP124 T03390194
KCPS 181853Z 28006KT 10SM FEW050 SCT090 33/18 A2993 RMK AO2 SLP129 T03280183
KCPS 181753Z 28008KT 10SM CLR 33/19 A2994 RMK AO2 SLP133 T03280194 10333 20206 58012
KCPS 181653Z 21005KT 10SM CLR 32/21 A2995 RMK AO2 SLP137 T03220211
KCPS 181553Z 23004KT 10SM CLR 31/22 A2996 RMK AO2 SLP142 T03060222
KCPS 181453Z VRB03KT 10SM CLR 28/22 A2997 RMK AO2 SLP145 T02830217 58001
KCPS 181353Z VRB03KT 10SM SCT080 26/21 A2998 RMK AO2 SLP149 T02610211
KCPS 181253Z 00000KT 9SM CLR 23/22 A2999 RMK AO2 SLP150 T02330217
KCPS 181153Z 00000KT 8SM CLR 21/19 A2998 RMK AO2 SLP147 T02060194 10222 20200 53007
KCPS 181053Z AUTO 00000KT 7SM CLR 21/20 A2997 RMK AO2 SLP144 T02060200
KCPS 180953Z AUTO 00000KT 7SM CLR 21/20 A2996 RMK AO2 SLP141 T02060200
KCPS 180853Z AUTO 00000KT 6SM BR CLR 21/20 A2996 RMK AO2 SLP139 T02060200 58002
KCPS 180753Z AUTO 00000KT 10SM CLR 21/21 A2996 RMK AO2 SLP140 T02110206
KCPS 180653Z AUTO 00000KT 10SM CLR 22/20 A2996 RMK AO2 SLP140 T02170200
KCPS 180553Z AUTO 00000KT 10SM CLR 22/21 A2996 RMK AO2 SLP140 T02220206 10300 20222 403390189 51004
KCPS 180453Z AUTO 00000KT 10SM CLR 23/21 A2996 RMK AO2 SLP139 T02280206